sensor_id;sensor_type;location;lat;lon;timestamp;P1;durP1;ratioP1;P2;durP2;ratioP2
11731;SDS011;5922;53.734;10.258;2022-08-01T00:01:11;11.10;;;9.93;;
11731;SDS011;5922;53.734;10.258;2022-08-01T00:03:38;11.77;;;10.57;;
11731;SDS011;5922;53.734;10.258;2022-08-01T00:06:06;12.03;;;10.33;;
11731;SDS011;5922;53.734;10.258;2022-08-01T00:08:33;11.73;;;10.63;;
11731;SDS011;5922;53.734;10.258;2022-08-01T00:11:00;12.20;;;10.20;;
11731;SDS011;5922;53.734;10.258;2022-08-01T00:13:29;11.17;;;10.17;;
11731;SDS011;5922;53.734;10.258;2022-08-01T00:15:56;13.23;;;10.60;;
11731;SDS011;5922;53.734;10.258;2022-08-01T00:18:23;11.13;;;10.13;;
11731;SDS011;5922;53.734;10.258;2022-08-01T00:20:50;10.77;;;9.67;;
11731;SDS011;5922;53.734;10.258;2022-08-01T00:23:17;10.53;;;9.10;;
11731;SDS011;5922;53.734;10.258;2022-08-01T00:25:44;11.50;;;10.40;;
11731;SDS011;5922;53.734;10.258;2022-08-01T00:28:11;17.13;;;9.87;;
11731;SDS011;5922;53.734;10.258;2022-08-01T00:30:40;10.37;;;9.37;;
11731;SDS011;5922;53.734;10.258;2022-08-01T00:33:07;11.40;;;9.30;;
11731;SDS011;5922;53.734;10.258;2022-08-01T00:35:34;10.30;;;9.40;;
11731;SDS011;5922;53.734;10.258;2022-08-01T00:38:01;11.33;;;9.10;;
11731;SDS011;5922;53.734;10.258;2022-08-01T00:40:28;10.53;;;9.20;;
11731;SDS011;5922;53.734;10.258;2022-08-01T00:42:56;10.03;;;9.03;;
11731;SDS011;5922;53.734;10.258;2022-08-01T00:45:23;11.87;;;9.17;;
11731;SDS011;5922;53.734;10.258;2022-08-01T00:47:51;11.67;;;9.43;;
11731;SDS011;5922;53.734;10.258;2022-08-01T00:50:18;11.70;;;8.97;;
11731;SDS011;5922;53.734;10.258;2022-08-01T00:52:45;10.60;;;9.47;;
11731;SDS011;5922;53.734;10.258;2022-08-01T00:55:13;12.47;;;9.80;;
11731;SDS011;5922;53.734;10.258;2022-08-01T00:57:40;13.73;;;9.57;;
11731;SDS011;5922;53.734;10.258;2022-08-01T01:00:08;11.63;;;9.53;;
11731;SDS011;5922;53.734;10.258;2022-08-01T01:02:35;10.93;;;9.67;;
11731;SDS011;5922;53.734;10.258;2022-08-01T01:05:04;11.53;;;10.43;;
11731;SDS011;5922;53.734;10.258;2022-08-01T01:07:32;12.53;;;10.10;;
11731;SDS011;5922;53.734;10.258;2022-08-01T01:10:03;12.23;;;10.00;;
11731;SDS011;5922;53.734;10.258;2022-08-01T01:12:34;12.03;;;10.43;;
11731;SDS011;5922;53.734;10.258;2022-08-01T01:15:04;14.47;;;10.40;;
11731;SDS011;5922;53.734;10.258;2022-08-01T01:17:35;11.23;;;10.07;;
11731;SDS011;5922;53.734;10.258;2022-08-01T01:20:05;11.50;;;10.33;;
11731;SDS011;5922;53.734;10.258;2022-08-01T01:22:43;11.47;;;9.80;;
11731;SDS011;5922;53.734;10.258;2022-08-01T01:25:23;11.50;;;9.17;;
11731;SDS011;5922;53.734;10.258;2022-08-01T01:27:57;10.17;;;9.17;;
11731;SDS011;5922;53.734;10.258;2022-08-01T01:30:26;9.90;;;9.00;;
11731;SDS011;5922;53.734;10.258;2022-08-01T01:32:55;11.80;;;8.87;;
11731;SDS011;5922;53.734;10.258;2022-08-01T01:35:25;10.27;;;9.00;;
11731;SDS011;5922;53.734;10.258;2022-08-01T01:37:56;10.90;;;9.50;;
11731;SDS011;5922;53.734;10.258;2022-08-01T01:40:24;10.70;;;9.33;;
11731;SDS011;5922;53.734;10.258;2022-08-01T01:42:52;11.30;;;8.80;;
11731;SDS011;5922;53.734;10.258;2022-08-01T01:45:20;9.67;;;8.70;;
11731;SDS011;5922;53.734;10.258;2022-08-01T01:47:49;12.00;;;8.97;;
11731;SDS011;5922;53.734;10.258;2022-08-01T01:50:17;9.00;;;8.20;;
11731;SDS011;5922;53.734;10.258;2022-08-01T01:52:46;13.77;;;8.30;;
11731;SDS011;5922;53.734;10.258;2022-08-01T01:55:14;9.90;;;8.10;;
11731;SDS011;5922;53.734;10.258;2022-08-01T01:57:42;9.10;;;8.07;;
11731;SDS011;5922;53.734;10.258;2022-08-01T02:00:11;10.10;;;8.73;;
11731;SDS011;5922;53.734;10.258;2022-08-01T02:02:39;10.03;;;8.63;;
11731;SDS011;5922;53.734;10.258;2022-08-01T02:05:09;12.30;;;8.83;;
11731;SDS011;5922;53.734;10.258;2022-08-01T02:07:36;11.87;;;9.23;;
11731;SDS011;5922;53.734;10.258;2022-08-01T02:10:04;11.00;;;9.37;;
11731;SDS011;5922;53.734;10.258;2022-08-01T02:12:32;9.77;;;8.77;;
11731;SDS011;5922;53.734;10.258;2022-08-01T02:15:02;12.83;;;8.87;;
11731;SDS011;5922;53.734;10.258;2022-08-01T02:17:30;11.57;;;8.87;;
11731;SDS011;5922;53.734;10.258;2022-08-01T02:19:58;11.67;;;9.33;;
11731;SDS011;5922;53.734;10.258;2022-08-01T02:22:27;11.50;;;9.07;;
11731;SDS011;5922;53.734;10.258;2022-08-01T02:24:57;9.73;;;8.53;;
11731;SDS011;5922;53.734;10.258;2022-08-01T02:27:28;10.47;;;9.30;;
11731;SDS011;5922;53.734;10.258;2022-08-01T02:29:57;10.67;;;9.13;;
11731;SDS011;5922;53.734;10.258;2022-08-01T02:32:26;10.57;;;8.67;;
11731;SDS011;5922;53.734;10.258;2022-08-01T02:34:54;11.10;;;8.67;;
11731;SDS011;5922;53.734;10.258;2022-08-01T02:37:22;9.57;;;8.57;;
11731;SDS011;5922;53.734;10.258;2022-08-01T02:39:52;10.13;;;8.53;;
11731;SDS011;5922;53.734;10.258;2022-08-01T02:42:20;9.93;;;8.63;;
11731;SDS011;5922;53.734;10.258;2022-08-01T02:44:49;10.10;;;8.50;;
11731;SDS011;5922;53.734;10.258;2022-08-01T02:47:16;10.53;;;8.30;;
11731;SDS011;5922;53.734;10.258;2022-08-01T02:49:46;11.43;;;8.17;;
11731;SDS011;5922;53.734;10.258;2022-08-01T02:52:14;9.10;;;7.90;;
11731;SDS011;5922;53.734;10.258;2022-08-01T02:54:43;9.53;;;8.23;;
11731;SDS011;5922;53.734;10.258;2022-08-01T02:57:12;14.40;;;8.07;;
11731;SDS011;5922;53.734;10.258;2022-08-01T02:59:40;11.93;;;8.00;;
11731;SDS011;5922;53.734;10.258;2022-08-01T03:02:08;11.73;;;7.37;;
11731;SDS011;5922;53.734;10.258;2022-08-01T03:04:37;8.57;;;7.47;;
11731;SDS011;5922;53.734;10.258;2022-08-01T03:07:05;10.10;;;7.37;;
11731;SDS011;5922;53.734;10.258;2022-08-01T03:09:34;13.23;;;7.60;;
11731;SDS011;5922;53.734;10.258;2022-08-01T03:12:03;8.07;;;7.30;;
11731;SDS011;5922;53.734;10.258;2022-08-01T03:14:33;9.43;;;7.27;;
11731;SDS011;5922;53.734;10.258;2022-08-01T03:17:02;7.43;;;6.63;;
11731;SDS011;5922;53.734;10.258;2022-08-01T03:19:30;9.50;;;6.93;;
11731;SDS011;5922;53.734;10.258;2022-08-01T03:21:58;8.43;;;7.17;;
11731;SDS011;5922;53.734;10.258;2022-08-01T03:24:28;6.93;;;6.27;;
11731;SDS011;5922;53.734;10.258;2022-08-01T03:26:56;7.60;;;6.80;;
11731;SDS011;5922;53.734;10.258;2022-08-01T03:29:23;7.60;;;6.73;;
11731;SDS011;5922;53.734;10.258;2022-08-01T03:31:52;9.57;;;6.30;;
11731;SDS011;5922;53.734;10.258;2022-08-01T03:34:20;11.17;;;6.23;;
11731;SDS011;5922;53.734;10.258;2022-08-01T03:36:48;7.03;;;6.33;;
11731;SDS011;5922;53.734;10.258;2022-08-01T03:39:17;7.07;;;6.33;;
11731;SDS011;5922;53.734;10.258;2022-08-01T03:41:46;7.43;;;6.73;;
11731;SDS011;5922;53.734;10.258;2022-08-01T03:44:16;6.93;;;6.30;;
11731;SDS011;5922;53.734;10.258;2022-08-01T03:46:45;7.40;;;6.10;;
11731;SDS011;5922;53.734;10.258;2022-08-01T03:49:16;7.40;;;5.97;;
11731;SDS011;5922;53.734;10.258;2022-08-01T03:51:44;8.57;;;6.50;;
11731;SDS011;5922;53.734;10.258;2022-08-01T03:54:13;11.30;;;6.27;;
11731;SDS011;5922;53.734;10.258;2022-08-01T03:56:41;8.87;;;6.07;;
11731;SDS011;5922;53.734;10.258;2022-08-01T03:59:09;6.50;;;5.70;;
11731;SDS011;5922;53.734;10.258;2022-08-01T04:01:37;6.20;;;5.40;;
11731;SDS011;5922;53.734;10.258;2022-08-01T04:04:04;7.27;;;6.10;;
11731;SDS011;5922;53.734;10.258;2022-08-01T04:06:33;8.67;;;5.87;;
11731;SDS011;5922;53.734;10.258;2022-08-01T04:09:00;7.67;;;6.07;;
11731;SDS011;5922;53.734;10.258;2022-08-01T04:11:27;7.53;;;6.23;;
11731;SDS011;5922;53.734;10.258;2022-08-01T04:13:54;8.30;;;6.27;;
11731;SDS011;5922;53.734;10.258;2022-08-01T04:16:22;7.43;;;6.30;;
11731;SDS011;5922;53.734;10.258;2022-08-01T04:18:49;7.57;;;6.17;;
11731;SDS011;5922;53.734;10.258;2022-08-01T04:21:17;10.43;;;6.37;;
11731;SDS011;5922;53.734;10.258;2022-08-01T04:23:46;9.20;;;6.00;;
11731;SDS011;5922;53.734;10.258;2022-08-01T04:26:13;9.30;;;6.13;;
11731;SDS011;5922;53.734;10.258;2022-08-01T04:28:41;6.77;;;6.13;;
11731;SDS011;5922;53.734;10.258;2022-08-01T04:31:09;8.50;;;5.60;;
11731;SDS011;5922;53.734;10.258;2022-08-01T04:33:38;7.30;;;6.20;;
11731;SDS011;5922;53.734;10.258;2022-08-01T04:36:05;7.43;;;6.03;;
11731;SDS011;5922;53.734;10.258;2022-08-01T04:38:33;7.70;;;5.23;;
11731;SDS011;5922;53.734;10.258;2022-08-01T04:41:02;8.90;;;5.43;;
11731;SDS011;5922;53.734;10.258;2022-08-01T04:43:31;10.17;;;5.70;;
11731;SDS011;5922;53.734;10.258;2022-08-01T04:45:58;11.83;;;5.70;;
11731;SDS011;5922;53.734;10.258;2022-08-01T04:48:28;8.40;;;5.27;;
11731;SDS011;5922;53.734;10.258;2022-08-01T04:50:56;8.53;;;6.07;;
11731;SDS011;5922;53.734;10.258;2022-08-01T04:53:24;6.50;;;5.40;;
11731;SDS011;5922;53.734;10.258;2022-08-01T04:55:51;8.27;;;5.00;;
11731;SDS011;5922;53.734;10.258;2022-08-01T04:58:20;9.03;;;5.33;;
11731;SDS011;5922;53.734;10.258;2022-08-01T05:00:47;6.87;;;5.00;;
11731;SDS011;5922;53.734;10.258;2022-08-01T05:03:14;5.60;;;4.60;;
11731;SDS011;5922;53.734;10.258;2022-08-01T05:05:41;6.03;;;4.83;;
11731;SDS011;5922;53.734;10.258;2022-08-01T05:08:08;8.30;;;4.80;;
11731;SDS011;5922;53.734;10.258;2022-08-01T05:10:35;5.17;;;4.57;;
11731;SDS011;5922;53.734;10.258;2022-08-01T05:13:03;3.60;;;3.30;;
11731;SDS011;5922;53.734;10.258;2022-08-01T05:15:33;4.40;;;3.43;;
11731;SDS011;5922;53.734;10.258;2022-08-01T05:18:01;3.70;;;2.90;;
11731;SDS011;5922;53.734;10.258;2022-08-01T05:20:28;5.03;;;2.60;;
11731;SDS011;5922;53.734;10.258;2022-08-01T05:22:56;4.10;;;2.70;;
11731;SDS011;5922;53.734;10.258;2022-08-01T05:25:23;2.63;;;2.43;;
11731;SDS011;5922;53.734;10.258;2022-08-01T05:27:50;2.77;;;2.40;;
11731;SDS011;5922;53.734;10.258;2022-08-01T05:30:17;2.50;;;2.30;;
11731;SDS011;5922;53.734;10.258;2022-08-01T05:32:46;2.43;;;2.20;;
11731;SDS011;5922;53.734;10.258;2022-08-01T05:35:13;2.47;;;1.90;;
11731;SDS011;5922;53.734;10.258;2022-08-01T05:37:40;3.27;;;2.40;;
11731;SDS011;5922;53.734;10.258;2022-08-01T05:40:07;5.03;;;2.37;;
11731;SDS011;5922;53.734;10.258;2022-08-01T05:42:35;2.47;;;2.23;;
11731;SDS011;5922;53.734;10.258;2022-08-01T05:45:02;3.67;;;2.20;;
11731;SDS011;5922;53.734;10.258;2022-08-01T05:47:29;5.27;;;2.17;;
11731;SDS011;5922;53.734;10.258;2022-08-01T05:49:58;3.17;;;2.23;;
11731;SDS011;5922;53.734;10.258;2022-08-01T05:52:25;4.10;;;2.40;;
11731;SDS011;5922;53.734;10.258;2022-08-01T05:54:53;6.97;;;2.57;;
11731;SDS011;5922;53.734;10.258;2022-08-01T05:57:20;3.87;;;2.40;;
11731;SDS011;5922;53.734;10.258;2022-08-01T05:59:47;2.80;;;2.07;;
11731;SDS011;5922;53.734;10.258;2022-08-01T06:02:14;6.97;;;2.30;;
11731;SDS011;5922;53.734;10.258;2022-08-01T06:04:42;5.50;;;2.50;;
11731;SDS011;5922;53.734;10.258;2022-08-01T06:07:11;6.57;;;2.07;;
11731;SDS011;5922;53.734;10.258;2022-08-01T06:09:38;4.63;;;2.50;;
11731;SDS011;5922;53.734;10.258;2022-08-01T06:12:05;5.90;;;2.13;;
11731;SDS011;5922;53.734;10.258;2022-08-01T06:14:33;4.90;;;2.10;;
11731;SDS011;5922;53.734;10.258;2022-08-01T06:17:00;5.70;;;2.10;;
11731;SDS011;5922;53.734;10.258;2022-08-01T06:19:27;4.30;;;2.07;;
11731;SDS011;5922;53.734;10.258;2022-08-01T06:21:54;5.17;;;2.50;;
11731;SDS011;5922;53.734;10.258;2022-08-01T06:24:23;3.57;;;2.20;;
11731;SDS011;5922;53.734;10.258;2022-08-01T06:26:50;5.37;;;2.50;;
11731;SDS011;5922;53.734;10.258;2022-08-01T06:29:17;3.90;;;2.40;;
11731;SDS011;5922;53.734;10.258;2022-08-01T06:31:44;5.17;;;2.60;;
11731;SDS011;5922;53.734;10.258;2022-08-01T06:34:12;7.63;;;2.53;;
11731;SDS011;5922;53.734;10.258;2022-08-01T06:36:40;7.40;;;2.77;;
11731;SDS011;5922;53.734;10.258;2022-08-01T06:39:07;5.20;;;2.50;;
11731;SDS011;5922;53.734;10.258;2022-08-01T06:41:35;7.87;;;2.53;;
11731;SDS011;5922;53.734;10.258;2022-08-01T06:44:03;5.87;;;2.60;;
11731;SDS011;5922;53.734;10.258;2022-08-01T06:46:30;10.57;;;3.33;;
11731;SDS011;5922;53.734;10.258;2022-08-01T06:48:57;7.07;;;2.70;;
11731;SDS011;5922;53.734;10.258;2022-08-01T06:51:25;9.13;;;2.77;;
11731;SDS011;5922;53.734;10.258;2022-08-01T06:53:52;5.60;;;2.73;;
11731;SDS011;5922;53.734;10.258;2022-08-01T06:56:19;6.37;;;2.77;;
11731;SDS011;5922;53.734;10.258;2022-08-01T06:58:47;5.27;;;2.80;;
11731;SDS011;5922;53.734;10.258;2022-08-01T07:01:15;5.50;;;2.97;;
11731;SDS011;5922;53.734;10.258;2022-08-01T07:03:43;5.53;;;2.70;;
11731;SDS011;5922;53.734;10.258;2022-08-01T07:06:10;9.17;;;3.10;;
11731;SDS011;5922;53.734;10.258;2022-08-01T07:08:37;4.80;;;2.70;;
11731;SDS011;5922;53.734;10.258;2022-08-01T07:11:04;7.73;;;2.70;;
11731;SDS011;5922;53.734;10.258;2022-08-01T07:13:32;4.53;;;2.43;;
11731;SDS011;5922;53.734;10.258;2022-08-01T07:16:00;8.57;;;2.50;;
11731;SDS011;5922;53.734;10.258;2022-08-01T07:18:27;3.20;;;2.27;;
11731;SDS011;5922;53.734;10.258;2022-08-01T07:20:55;4.33;;;2.40;;
11731;SDS011;5922;53.734;10.258;2022-08-01T07:23:22;5.10;;;2.27;;
11731;SDS011;5922;53.734;10.258;2022-08-01T07:25:49;7.07;;;2.40;;
11731;SDS011;5922;53.734;10.258;2022-08-01T07:28:17;3.93;;;2.10;;
11731;SDS011;5922;53.734;10.258;2022-08-01T07:30:44;3.63;;;2.10;;
11731;SDS011;5922;53.734;10.258;2022-08-01T07:33:13;5.20;;;1.90;;
11731;SDS011;5922;53.734;10.258;2022-08-01T07:35:40;4.33;;;1.60;;
11731;SDS011;5922;53.734;10.258;2022-08-01T07:38:07;4.50;;;2.30;;
11731;SDS011;5922;53.734;10.258;2022-08-01T07:40:35;2.87;;;1.73;;
11731;SDS011;5922;53.734;10.258;2022-08-01T07:43:02;3.50;;;1.80;;
11731;SDS011;5922;53.734;10.258;2022-08-01T07:45:29;3.47;;;1.70;;
11731;SDS011;5922;53.734;10.258;2022-08-01T07:48:01;2.73;;;1.50;;
11731;SDS011;5922;53.734;10.258;2022-08-01T07:50:29;3.73;;;1.43;;
11731;SDS011;5922;53.734;10.258;2022-08-01T07:52:57;1.37;;;1.27;;
11731;SDS011;5922;53.734;10.258;2022-08-01T07:55:24;4.50;;;1.30;;
11731;SDS011;5922;53.734;10.258;2022-08-01T07:57:52;1.50;;;1.40;;
11731;SDS011;5922;53.734;10.258;2022-08-01T08:00:19;1.60;;;1.50;;
11731;SDS011;5922;53.734;10.258;2022-08-01T08:02:48;2.43;;;1.60;;
11731;SDS011;5922;53.734;10.258;2022-08-01T08:08:25;3.00;;;1.70;;
11731;SDS011;5922;53.734;10.258;2022-08-01T08:10:55;5.70;;;1.90;;
11731;SDS011;5922;53.734;10.258;2022-08-01T08:13:45;3.50;;;2.03;;
11731;SDS011;5922;53.734;10.258;2022-08-01T08:16:29;5.50;;;2.40;;
11731;SDS011;5922;53.734;10.258;2022-08-01T08:18:58;9.20;;;2.43;;
11731;SDS011;5922;53.734;10.258;2022-08-01T08:58:24;6.30;;;2.40;;
11731;SDS011;5922;53.734;10.258;2022-08-01T09:00:55;7.13;;;2.67;;
11731;SDS011;5922;53.734;10.258;2022-08-01T09:03:29;4.70;;;2.53;;
11731;SDS011;5922;53.734;10.258;2022-08-01T09:05:58;5.73;;;2.43;;
11731;SDS011;5922;53.734;10.258;2022-08-01T09:08:26;4.03;;;2.50;;
11731;SDS011;5922;53.734;10.258;2022-08-01T09:14:05;12.03;;;2.53;;
11731;SDS011;5922;53.734;10.258;2022-08-01T09:16:35;9.70;;;2.60;;
11731;SDS011;5922;53.734;10.258;2022-08-01T09:19:06;7.47;;;2.07;;
11731;SDS011;5922;53.734;10.258;2022-08-01T09:21:34;6.87;;;2.67;;
11731;SDS011;5922;53.734;10.258;2022-08-01T09:24:16;4.90;;;2.60;;
11731;SDS011;5922;53.734;10.258;2022-08-01T09:26:46;11.47;;;2.50;;
11731;SDS011;5922;53.734;10.258;2022-08-01T09:29:22;5.43;;;2.07;;
11731;SDS011;5922;53.734;10.258;2022-08-01T09:32:14;5.47;;;2.00;;
11731;SDS011;5922;53.734;10.258;2022-08-01T09:37:47;6.33;;;1.90;;
11731;SDS011;5922;53.734;10.258;2022-08-01T09:40:43;5.50;;;2.20;;
11731;SDS011;5922;53.734;10.258;2022-08-01T09:43:11;8.67;;;2.33;;
11731;SDS011;5922;53.734;10.258;2022-08-01T09:45:39;6.87;;;2.00;;
11731;SDS011;5922;53.734;10.258;2022-08-01T09:48:08;8.83;;;2.50;;
11731;SDS011;5922;53.734;10.258;2022-08-01T09:50:40;7.70;;;2.70;;
11731;SDS011;5922;53.734;10.258;2022-08-01T09:53:07;8.30;;;2.10;;
11731;SDS011;5922;53.734;10.258;2022-08-01T09:55:36;7.70;;;2.33;;
11731;SDS011;5922;53.734;10.258;2022-08-01T09:58:06;8.47;;;2.57;;
11731;SDS011;5922;53.734;10.258;2022-08-01T10:00:36;8.83;;;2.53;;
11731;SDS011;5922;53.734;10.258;2022-08-01T10:05:51;8.70;;;2.43;;
11731;SDS011;5922;53.734;10.258;2022-08-01T10:08:28;5.27;;;2.43;;
11731;SDS011;5922;53.734;10.258;2022-08-01T10:11:12;10.37;;;2.77;;
11731;SDS011;5922;53.734;10.258;2022-08-01T10:13:39;7.87;;;2.80;;
11731;SDS011;5922;53.734;10.258;2022-08-01T10:16:12;8.33;;;2.80;;
11731;SDS011;5922;53.734;10.258;2022-08-01T10:18:39;9.20;;;3.00;;
11731;SDS011;5922;53.734;10.258;2022-08-01T10:21:13;9.03;;;2.80;;
11731;SDS011;5922;53.734;10.258;2022-08-01T10:26:48;8.40;;;2.70;;
11731;SDS011;5922;53.734;10.258;2022-08-01T10:29:19;8.00;;;2.70;;
11731;SDS011;5922;53.734;10.258;2022-08-01T10:31:46;6.53;;;2.67;;
11731;SDS011;5922;53.734;10.258;2022-08-01T10:34:14;7.63;;;2.73;;
11731;SDS011;5922;53.734;10.258;2022-08-01T10:36:45;8.10;;;2.40;;
11731;SDS011;5922;53.734;10.258;2022-08-01T10:39:12;10.83;;;2.47;;
11731;SDS011;5922;53.734;10.258;2022-08-01T10:41:40;8.97;;;2.60;;
11731;SDS011;5922;53.734;10.258;2022-08-01T10:44:08;6.50;;;2.63;;
11731;SDS011;5922;53.734;10.258;2022-08-01T10:46:36;8.93;;;2.80;;
11731;SDS011;5922;53.734;10.258;2022-08-01T10:49:04;7.60;;;2.40;;
11731;SDS011;5922;53.734;10.258;2022-08-01T10:51:34;6.00;;;2.40;;
11731;SDS011;5922;53.734;10.258;2022-08-01T10:54:06;10.53;;;2.30;;
11731;SDS011;5922;53.734;10.258;2022-08-01T10:56:38;6.43;;;2.17;;
11731;SDS011;5922;53.734;10.258;2022-08-01T10:59:05;7.97;;;2.50;;
11731;SDS011;5922;53.734;10.258;2022-08-01T11:01:34;10.27;;;2.60;;
11731;SDS011;5922;53.734;10.258;2022-08-01T11:04:03;6.83;;;1.97;;
11731;SDS011;5922;53.734;10.258;2022-08-01T11:06:41;7.13;;;2.33;;
11731;SDS011;5922;53.734;10.258;2022-08-01T11:09:24;8.33;;;2.30;;
11731;SDS011;5922;53.734;10.258;2022-08-01T11:11:58;5.63;;;2.00;;
11731;SDS011;5922;53.734;10.258;2022-08-01T11:14:26;5.53;;;1.80;;
11731;SDS011;5922;53.734;10.258;2022-08-01T11:16:54;7.27;;;2.07;;
11731;SDS011;5922;53.734;10.258;2022-08-01T11:19:22;10.27;;;2.30;;
11731;SDS011;5922;53.734;10.258;2022-08-01T11:21:58;4.57;;;1.90;;
11731;SDS011;5922;53.734;10.258;2022-08-01T11:27:17;7.73;;;2.27;;
11731;SDS011;5922;53.734;10.258;2022-08-01T11:29:56;7.97;;;2.53;;
11731;SDS011;5922;53.734;10.258;2022-08-01T11:32:45;6.93;;;2.30;;
11731;SDS011;5922;53.734;10.258;2022-08-01T11:35:13;8.50;;;2.53;;
11731;SDS011;5922;53.734;10.258;2022-08-01T11:37:40;8.33;;;2.30;;
11731;SDS011;5922;53.734;10.258;2022-08-01T11:40:13;4.23;;;1.90;;
11731;SDS011;5922;53.734;10.258;2022-08-01T11:42:42;9.97;;;2.07;;
11731;SDS011;5922;53.734;10.258;2022-08-01T11:45:09;6.77;;;1.80;;
11731;SDS011;5922;53.734;10.258;2022-08-01T11:47:43;6.23;;;2.20;;
11731;SDS011;5922;53.734;10.258;2022-08-01T11:52:56;7.43;;;2.47;;
11731;SDS011;5922;53.734;10.258;2022-08-01T11:55:24;8.63;;;2.20;;
11731;SDS011;5922;53.734;10.258;2022-08-01T11:57:59;6.53;;;1.80;;
11731;SDS011;5922;53.734;10.258;2022-08-01T12:00:27;6.83;;;2.20;;
11731;SDS011;5922;53.734;10.258;2022-08-01T12:02:58;4.87;;;2.20;;
11731;SDS011;5922;53.734;10.258;2022-08-01T12:05:26;7.70;;;2.47;;
11731;SDS011;5922;53.734;10.258;2022-08-01T12:07:54;7.63;;;2.40;;
11731;SDS011;5922;53.734;10.258;2022-08-01T12:10:22;11.00;;;2.43;;
11731;SDS011;5922;53.734;10.258;2022-08-01T12:12:50;4.93;;;1.83;;
11731;SDS011;5922;53.734;10.258;2022-08-01T12:15:19;5.17;;;2.10;;
11731;SDS011;5922;53.734;10.258;2022-08-01T12:17:47;6.87;;;2.00;;
11731;SDS011;5922;53.734;10.258;2022-08-01T12:20:15;7.37;;;1.90;;
11731;SDS011;5922;53.734;10.258;2022-08-01T12:22:43;7.57;;;2.30;;
11731;SDS011;5922;53.734;10.258;2022-08-01T12:25:10;6.43;;;1.90;;
11731;SDS011;5922;53.734;10.258;2022-08-01T12:27:38;7.57;;;2.07;;
11731;SDS011;5922;53.734;10.258;2022-08-01T12:30:06;7.27;;;2.13;;
11731;SDS011;5922;53.734;10.258;2022-08-01T12:32:35;5.07;;;2.00;;
11731;SDS011;5922;53.734;10.258;2022-08-01T12:35:04;4.97;;;1.50;;
11731;SDS011;5922;53.734;10.258;2022-08-01T12:37:32;5.57;;;1.83;;
11731;SDS011;5922;53.734;10.258;2022-08-01T12:39:59;7.53;;;2.20;;
11731;SDS011;5922;53.734;10.258;2022-08-01T12:42:26;4.60;;;2.03;;
11731;SDS011;5922;53.734;10.258;2022-08-01T12:44:53;4.50;;;2.00;;
11731;SDS011;5922;53.734;10.258;2022-08-01T12:47:41;7.33;;;2.30;;
11731;SDS011;5922;53.734;10.258;2022-08-01T12:50:10;4.57;;;1.60;;
11731;SDS011;5922;53.734;10.258;2022-08-01T12:52:38;6.20;;;2.10;;
11731;SDS011;5922;53.734;10.258;2022-08-01T12:55:07;6.80;;;1.90;;
11731;SDS011;5922;53.734;10.258;2022-08-01T12:57:35;7.10;;;2.03;;
11731;SDS011;5922;53.734;10.258;2022-08-01T13:00:09;7.57;;;1.83;;
11731;SDS011;5922;53.734;10.258;2022-08-01T13:02:37;6.23;;;2.07;;
11731;SDS011;5922;53.734;10.258;2022-08-01T13:05:07;3.13;;;1.43;;
11731;SDS011;5922;53.734;10.258;2022-08-01T13:07:35;4.50;;;1.63;;
11731;SDS011;5922;53.734;10.258;2022-08-01T13:10:03;7.03;;;1.73;;
11731;SDS011;5922;53.734;10.258;2022-08-01T13:12:32;7.33;;;2.00;;
11731;SDS011;5922;53.734;10.258;2022-08-01T13:15:16;5.27;;;1.60;;
11731;SDS011;5922;53.734;10.258;2022-08-01T13:17:43;4.80;;;1.70;;
11731;SDS011;5922;53.734;10.258;2022-08-01T13:20:11;8.80;;;2.10;;
11731;SDS011;5922;53.734;10.258;2022-08-01T13:22:47;6.67;;;1.90;;
11731;SDS011;5922;53.734;10.258;2022-08-01T13:25:15;8.63;;;2.20;;
11731;SDS011;5922;53.734;10.258;2022-08-01T13:27:43;6.87;;;2.47;;
11731;SDS011;5922;53.734;10.258;2022-08-01T13:30:10;8.70;;;2.00;;
11731;SDS011;5922;53.734;10.258;2022-08-01T13:32:38;6.33;;;1.97;;
11731;SDS011;5922;53.734;10.258;2022-08-01T13:35:08;10.07;;;2.03;;
11731;SDS011;5922;53.734;10.258;2022-08-01T13:37:38;6.33;;;2.07;;
11731;SDS011;5922;53.734;10.258;2022-08-01T13:40:08;7.50;;;2.30;;
11731;SDS011;5922;53.734;10.258;2022-08-01T13:42:35;5.70;;;1.87;;
11731;SDS011;5922;53.734;10.258;2022-08-01T13:45:03;7.73;;;2.07;;
11731;SDS011;5922;53.734;10.258;2022-08-01T13:47:32;5.63;;;2.00;;
11731;SDS011;5922;53.734;10.258;2022-08-01T13:49:59;6.90;;;2.00;;
11731;SDS011;5922;53.734;10.258;2022-08-01T13:52:27;5.10;;;1.77;;
11731;SDS011;5922;53.734;10.258;2022-08-01T13:54:55;5.10;;;2.10;;
11731;SDS011;5922;53.734;10.258;2022-08-01T13:57:24;6.30;;;2.00;;
11731;SDS011;5922;53.734;10.258;2022-08-01T13:59:52;12.33;;;2.30;;
11731;SDS011;5922;53.734;10.258;2022-08-01T14:02:20;7.23;;;2.10;;
11731;SDS011;5922;53.734;10.258;2022-08-01T14:04:47;5.50;;;1.90;;
11731;SDS011;5922;53.734;10.258;2022-08-01T14:07:15;7.00;;;1.87;;
11731;SDS011;5922;53.734;10.258;2022-08-01T14:09:42;6.07;;;1.90;;
11731;SDS011;5922;53.734;10.258;2022-08-01T14:14:49;6.53;;;1.97;;
11731;SDS011;5922;53.734;10.258;2022-08-01T14:17:16;4.47;;;1.90;;
11731;SDS011;5922;53.734;10.258;2022-08-01T14:19:43;4.23;;;1.83;;
11731;SDS011;5922;53.734;10.258;2022-08-01T14:22:11;7.00;;;1.90;;
11731;SDS011;5922;53.734;10.258;2022-08-01T14:24:38;5.10;;;1.90;;
11731;SDS011;5922;53.734;10.258;2022-08-01T14:27:05;8.87;;;2.13;;
11731;SDS011;5922;53.734;10.258;2022-08-01T14:29:32;5.80;;;2.00;;
11731;SDS011;5922;53.734;10.258;2022-08-01T14:32:00;5.80;;;2.17;;
11731;SDS011;5922;53.734;10.258;2022-08-01T14:34:28;4.30;;;1.60;;
11731;SDS011;5922;53.734;10.258;2022-08-01T14:36:55;6.80;;;1.80;;
11731;SDS011;5922;53.734;10.258;2022-08-01T14:39:22;4.80;;;1.77;;
11731;SDS011;5922;53.734;10.258;2022-08-01T14:41:49;5.83;;;2.00;;
11731;SDS011;5922;53.734;10.258;2022-08-01T14:44:16;8.10;;;2.10;;
11731;SDS011;5922;53.734;10.258;2022-08-01T14:46:57;5.67;;;1.90;;
11731;SDS011;5922;53.734;10.258;2022-08-01T14:49:26;9.27;;;2.00;;
11731;SDS011;5922;53.734;10.258;2022-08-01T14:51:53;6.17;;;1.90;;
11731;SDS011;5922;53.734;10.258;2022-08-01T14:54:20;6.80;;;2.10;;
11731;SDS011;5922;53.734;10.258;2022-08-01T14:56:47;5.07;;;1.87;;
11731;SDS011;5922;53.734;10.258;2022-08-01T14:59:16;5.90;;;1.87;;
11731;SDS011;5922;53.734;10.258;2022-08-01T15:01:43;7.67;;;2.10;;
11731;SDS011;5922;53.734;10.258;2022-08-01T15:04:11;5.07;;;1.83;;
11731;SDS011;5922;53.734;10.258;2022-08-01T15:06:39;6.17;;;2.00;;
11731;SDS011;5922;53.734;10.258;2022-08-01T15:09:06;5.20;;;1.63;;
11731;SDS011;5922;53.734;10.258;2022-08-01T15:11:33;5.80;;;2.10;;
11731;SDS011;5922;53.734;10.258;2022-08-01T15:14:00;7.07;;;1.77;;
11731;SDS011;5922;53.734;10.258;2022-08-01T15:16:45;7.47;;;2.03;;
11731;SDS011;5922;53.734;10.258;2022-08-01T15:19:12;5.80;;;1.83;;
11731;SDS011;5922;53.734;10.258;2022-08-01T15:21:41;6.00;;;2.00;;
11731;SDS011;5922;53.734;10.258;2022-08-01T15:24:08;5.23;;;1.60;;
11731;SDS011;5922;53.734;10.258;2022-08-01T15:26:35;8.93;;;1.60;;
11731;SDS011;5922;53.734;10.258;2022-08-01T15:29:02;6.83;;;2.03;;
11731;SDS011;5922;53.734;10.258;2022-08-01T15:31:29;5.70;;;1.80;;
11731;SDS011;5922;53.734;10.258;2022-08-01T15:33:57;5.70;;;2.10;;
11731;SDS011;5922;53.734;10.258;2022-08-01T15:36:24;7.50;;;1.90;;
11731;SDS011;5922;53.734;10.258;2022-08-01T15:38:52;7.20;;;2.00;;
11731;SDS011;5922;53.734;10.258;2022-08-01T15:41:21;4.80;;;1.70;;
11731;SDS011;5922;53.734;10.258;2022-08-01T15:43:50;5.00;;;1.80;;
11731;SDS011;5922;53.734;10.258;2022-08-01T15:46:18;8.80;;;2.10;;
11731;SDS011;5922;53.734;10.258;2022-08-01T15:48:45;5.30;;;1.93;;
11731;SDS011;5922;53.734;10.258;2022-08-01T15:51:13;6.37;;;1.73;;
11731;SDS011;5922;53.734;10.258;2022-08-01T15:53:46;5.83;;;2.07;;